Time;durP1;ratioP1;P1;durP2;ratioP2;P2;SDS_P1;SDS_P2;PMS_P1;PMS_P2;Temp;Humidity;BMP_temperature;BMP_pressure;BME280_temperature;BME280_humidity;BME280_pressure;Samples;Min_cycle;Max_cycle;Signal;HPM_P1;HPM_P2
2023/06/05 00:02:12;;;;;;;2.97;1.60;;;13.90;96.10;;;;;;5053133;28;20044;-82
2023/06/05 00:04:39;;;;;;;4.75;2.05;;;13.90;96.20;;;;;;5053373;28;20029;-83
2023/06/05 00:07:05;;;;;;;3.88;2.45;;;13.80;96.20;;;;;;5052309;28;20021;-83
2023/06/05 00:09:31;;;;;;;3.70;2.20;;;13.80;96.30;;;;;;5052271;28;20501;-84
2023/06/05 00:11:56;;;;;;;2.42;1.85;;;13.80;96.40;;;;;;5051504;28;20065;-84
2023/06/05 00:14:22;;;;;;;3.70;1.83;;;13.80;96.50;;;;;;5054286;28;20028;-83
2023/06/05 00:16:50;;;;;;;4.45;2.30;;;13.70;96.50;;;;;;5051033;28;20036;-83
2023/06/05 00:19:15;;;;;;;3.70;2.05;;;13.70;96.80;;;;;;5053835;28;20024;-84
2023/06/05 00:21:41;;;;;;;3.25;1.65;;;13.60;96.80;;;;;;5052560;28;20035;-83
2023/06/05 00:24:06;;;;;;;4.70;2.25;;;13.60;96.90;;;;;;5065777;28;20052;-83
2023/06/05 00:26:32;;;;;;;2.58;2.03;;;13.60;97.00;;;;;;5071630;28;20067;-84
2023/06/05 00:28:57;;;;;;;3.55;2.10;;;13.50;97.00;;;;;;5062406;28;20920;-83
2023/06/05 00:31:23;;;;;;;3.45;2.10;;;13.50;97.10;;;;;;5056970;28;20397;-83
2023/06/05 00:33:49;;;;;;;2.70;1.92;;;13.50;97.20;;;;;;5062670;28;20024;-84
2023/06/05 00:36:14;;;;;;;3.17;1.70;;;13.40;97.20;;;;;;5056851;28;20025;-82
2023/06/05 00:38:40;;;;;;;3.67;2.03;;;13.40;97.40;;;;;;5072473;28;20028;-84
2023/06/05 00:41:05;;;;;;;4.50;2.63;;;13.40;97.40;;;;;;5057239;28;20448;-83
2023/06/05 00:43:31;;;;;;;4.45;2.40;;;13.30;97.40;;;;;;5062448;28;20036;-84
2023/06/05 00:46:02;;;;;;;3.85;2.40;;;13.30;97.50;;;;;;5056477;28;20028;-83
2023/06/05 00:48:29;;;;;;;3.25;2.35;;;13.30;97.70;;;;;;5063043;28;20016;-83
2023/06/05 00:50:56;;;;;;;5.03;2.55;;;13.20;97.80;;;;;;5072186;28;20028;-84
2023/06/05 00:53:23;;;;;;;4.03;2.58;;;13.30;97.90;;;;;;5062355;28;20029;-83
2023/06/05 00:55:49;;;;;;;4.47;2.10;;;13.20;97.90;;;;;;5071951;28;20071;-83
2023/06/05 00:58:15;;;;;;;4.53;2.58;;;13.20;98.00;;;;;;5073104;28;20119;-84
2023/06/05 01:00:40;;;;;;;3.40;2.40;;;13.20;98.10;;;;;;5073491;28;20056;-84
2023/06/05 01:03:08;;;;;;;3.75;2.30;;;13.10;98.30;;;;;;5062197;28;20028;-83
2023/06/05 01:05:36;;;;;;;4.47;2.47;;;13.10;98.40;;;;;;5073903;28;20516;-84
2023/06/05 01:08:03;;;;;;;3.85;2.20;;;13.10;98.40;;;;;;5056176;28;20028;-83
2023/06/05 01:10:30;;;;;;;4.47;2.28;;;13.00;98.40;;;;;;5062300;28;20028;-84
2023/06/05 01:13:06;;;;;;;3.88;2.30;;;13.00;98.50;;;;;;5071122;28;20032;-81
2023/06/05 01:15:33;;;;;;;3.85;2.20;;;13.00;98.70;;;;;;5074040;28;20145;-84
2023/06/05 01:18:00;;;;;;;3.92;2.40;;;13.00;98.70;;;;;;5072711;28;20162;-83
2023/06/05 01:20:36;;;;;;;3.80;2.58;;;12.90;98.80;;;;;;5072121;28;20482;-82
2023/06/05 01:23:06;;;;;;;5.35;2.45;;;12.90;99.00;;;;;;5061284;28;20040;-83
2023/06/05 01:25:32;;;;;;;4.10;2.33;;;12.90;99.00;;;;;;5053040;28;20168;-83
2023/06/05 01:28:17;;;;;;;3.92;2.80;;;12.80;99.10;;;;;;5051703;28;20064;-83
2023/06/05 01:31:04;;;;;;;4.90;3.05;;;12.80;99.20;;;;;;5053926;28;20024;-82
2023/06/05 01:33:44;;;;;;;5.50;2.63;;;12.80;99.30;;;;;;5056286;28;20056;-83
2023/06/05 01:36:14;;;;;;;3.53;2.70;;;12.70;99.40;;;;;;5061778;28;20059;-83
2023/06/05 01:38:41;;;;;;;4.80;2.95;;;12.70;99.50;;;;;;5052634;28;20033;-83
2023/06/05 01:41:08;;;;;;;5.38;3.00;;;12.60;99.60;;;;;;5053566;28;20075;-83
2023/06/05 01:43:35;;;;;;;3.85;2.78;;;12.60;99.70;;;;;;5054693;28;20834;-82
2023/06/05 01:46:01;;;;;;;4.47;2.92;;;12.60;99.80;;;;;;5056778;28;20043;-83
2023/06/05 01:48:30;;;;;;;4.75;2.70;;;12.50;99.80;;;;;;5056653;28;20101;-82
2023/06/05 01:51:00;;;;;;;5.70;3.10;;;12.50;99.90;;;;;;5054807;28;20025;-83
2023/06/05 01:53:27;;;;;;;5.75;3.08;;;12.50;99.90;;;;;;5055214;28;20035;-83
2023/06/05 01:55:57;;;;;;;5.38;3.15;;;12.40;99.90;;;;;;5063945;28;20485;-83
2023/06/05 01:58:23;;;;;;;4.32;3.00;;;12.40;99.90;;;;;;5055486;28;20475;-82
2023/06/05 02:00:49;;;;;;;5.50;3.10;;;12.40;99.90;;;;;;5056365;28;20475;-83
2023/06/05 02:03:17;;;;;;;6.22;2.97;;;12.30;99.90;;;;;;5059728;28;20029;-82
2023/06/05 02:05:43;;;;;;;5.45;3.00;;;12.30;99.90;;;;;;5055794;28;20029;-82
2023/06/05 02:08:10;;;;;;;4.40;2.95;;;12.30;99.90;;;;;;5058778;28;20035;-82
2023/06/05 02:10:37;;;;;;;4.30;2.67;;;12.20;99.90;;;;;;5059769;28;20071;-82
2023/06/05 02:13:03;;;;;;;4.05;2.83;;;12.20;99.90;;;;;;5054390;28;20025;-81
2023/06/05 02:15:32;;;;;;;4.63;2.95;;;12.20;99.90;;;;;;5055049;28;20127;-84
2023/06/05 02:17:57;;;;;;;3.88;2.80;;;12.20;99.90;;;;;;5059377;28;20024;-84
2023/06/05 02:20:25;;;;;;;4.55;2.92;;;12.20;99.90;;;;;;5054623;28;20121;-85
2023/06/05 02:22:51;;;;;;;5.68;3.25;;;12.20;99.90;;;;;;5064894;28;20517;-84
2023/06/05 02:25:17;;;;;;;4.70;2.90;;;12.10;99.90;;;;;;5056827;28;20048;-84
2023/06/05 02:27:43;;;;;;;4.18;3.15;;;12.10;99.90;;;;;;5054436;28;20033;-84
2023/06/05 02:30:09;;;;;;;4.43;3.15;;;12.10;99.90;;;;;;5054280;28;20029;-84
2023/06/05 02:32:35;;;;;;;5.03;3.40;;;12.00;99.90;;;;;;5056072;28;20540;-83
2023/06/05 02:35:02;;;;;;;6.93;3.63;;;12.00;99.90;;;;;;5058033;28;20024;-84
2023/06/05 02:37:28;;;;;;;5.03;3.40;;;12.00;99.90;;;;;;5059013;28;20047;-83
2023/06/05 02:39:54;;;;;;;5.45;3.88;;;12.00;99.90;;;;;;5053796;28;20107;-83
2023/06/05 02:42:19;;;;;;;6.40;3.83;;;11.90;99.90;;;;;;5055083;28;20460;-84
2023/06/05 02:44:46;;;;;;;4.72;3.30;;;11.90;99.90;;;;;;5053779;28;20476;-84
2023/06/05 02:47:12;;;;;;;5.88;3.97;;;11.80;99.90;;;;;;5054541;28;20058;-84
2023/06/05 02:49:37;;;;;;;6.07;3.83;;;11.80;99.90;;;;;;5058752;28;20045;-83
2023/06/05 02:52:04;;;;;;;5.68;3.72;;;11.80;99.90;;;;;;5062832;28;20058;-84
2023/06/05 02:54:30;;;;;;;5.18;3.50;;;11.80;99.90;;;;;;5058706;28;20037;-83
2023/06/05 02:56:56;;;;;;;5.32;3.45;;;11.80;99.90;;;;;;5054041;28;20116;-83
2023/06/05 02:59:24;;;;;;;6.53;3.92;;;11.80;99.90;;;;;;5064521;28;20020;-83
2023/06/05 03:01:50;;;;;;;5.63;3.85;;;11.70;99.90;;;;;;5053990;28;20036;-84
2023/06/05 03:04:21;;;;;;;6.57;4.38;;;11.70;99.90;;;;;;5053822;28;20201;-83
2023/06/05 03:06:50;;;;;;;6.45;3.95;;;11.70;99.90;;;;;;5053940;28;20537;-82
2023/06/05 03:09:16;;;;;;;4.55;3.63;;;11.70;99.90;;;;;;5052773;28;20047;-84
2023/06/05 03:11:43;;;;;;;6.53;3.78;;;11.70;99.90;;;;;;5053599;28;20466;-84
2023/06/05 03:14:09;;;;;;;5.55;3.50;;;11.60;99.90;;;;;;5054798;28;20070;-84
2023/06/05 03:16:41;;;;;;;6.18;3.92;;;11.60;99.90;;;;;;5055384;28;20465;-83
2023/06/05 03:19:08;;;;;;;6.18;3.53;;;11.60;99.90;;;;;;5054187;28;20028;-84
2023/06/05 03:21:35;;;;;;;5.55;4.10;;;11.60;99.90;;;;;;5053444;28;20174;-84
2023/06/05 03:24:01;;;;;;;5.45;3.97;;;11.60;99.90;;;;;;5051471;28;20044;-83
2023/06/05 03:26:27;;;;;;;5.10;3.83;;;11.50;99.90;;;;;;5062239;28;20442;-82
2023/06/05 03:28:53;;;;;;;5.63;4.10;;;11.50;99.90;;;;;;5053511;28;20107;-82
2023/06/05 03:31:18;;;;;;;6.10;4.60;;;11.50;99.90;;;;;;5055266;28;20032;-83
2023/06/05 03:33:44;;;;;;;6.15;4.55;;;11.50;99.90;;;;;;5053867;28;20027;-83
2023/06/05 03:36:10;;;;;;;6.07;4.53;;;11.50;99.90;;;;;;5052360;28;20047;-82
2023/06/05 03:38:35;;;;;;;7.20;4.47;;;11.50;99.90;;;;;;5057900;28;20025;-83
2023/06/05 03:41:01;;;;;;;6.13;4.13;;;11.50;99.90;;;;;;5062317;28;20032;-81
2023/06/05 03:43:26;;;;;;;6.95;4.07;;;11.40;99.90;;;;;;5063123;28;20071;-82
2023/06/05 03:45:53;;;;;;;7.78;4.72;;;11.40;99.90;;;;;;5053098;28;20029;-82
2023/06/05 03:48:21;;;;;;;8.38;5.30;;;11.40;99.90;;;;;;5055668;28;20021;-83
2023/06/05 03:50:47;;;;;;;7.05;4.60;;;11.40;99.90;;;;;;5051541;28;20090;-83
2023/06/05 03:53:13;;;;;;;7.53;5.05;;;11.40;99.90;;;;;;5053574;28;20032;-82
2023/06/05 03:55:41;;;;;;;6.28;4.50;;;11.40;99.90;;;;;;5057251;28;20033;-82
2023/06/05 03:58:14;;;;;;;7.40;4.45;;;11.30;99.90;;;;;;5054007;28;20043;-81
2023/06/05 04:00:42;;;;;;;6.35;4.38;;;11.40;99.90;;;;;;5054736;28;20043;-81
2023/06/05 04:03:09;;;;;;;6.82;4.45;;;11.30;99.90;;;;;;5056799;28;20024;-83
2023/06/05 04:05:35;;;;;;;6.43;3.97;;;11.30;99.90;;;;;;5056548;28;20028;-83
2023/06/05 04:08:01;;;;;;;7.28;4.75;;;11.40;99.90;;;;;;5051567;28;22450;-82
2023/06/05 04:10:26;;;;;;;5.57;4.00;;;11.40;99.90;;;;;;5053288;28;20024;-82
2023/06/05 04:12:52;;;;;;;6.47;4.55;;;11.40;99.90;;;;;;5052343;28;20020;-83
2023/06/05 04:15:18;;;;;;;5.75;4.50;;;11.40;99.90;;;;;;5052441;28;20060;-84
2023/06/05 04:17:43;;;;;;;6.45;4.45;;;11.40;99.90;;;;;;5054417;28;20033;-83
2023/06/05 04:20:14;;;;;;;6.32;4.70;;;11.40;99.90;;;;;;5052901;28;20505;-81
2023/06/05 04:22:40;;;;;;;8.30;4.63;;;11.40;99.90;;;;;;5056992;28;20067;-82
2023/06/05 04:25:06;;;;;;;6.22;4.80;;;11.40;99.90;;;;;;5050629;28;20362;-82
2023/06/05 04:27:31;;;;;;;7.28;4.55;;;11.40;99.90;;;;;;5057449;28;20033;-82
2023/06/05 04:29:57;;;;;;;7.93;4.80;;;11.40;99.90;;;;;;5056215;28;20020;-82
2023/06/05 04:32:22;;;;;;;6.35;5.07;;;11.40;99.90;;;;;;5057150;28;20040;-82
2023/06/05 04:34:48;;;;;;;5.53;4.13;;;11.40;99.90;;;;;;5055481;28;20116;-83
2023/06/05 04:37:13;;;;;;;7.32;4.88;;;11.40;99.90;;;;;;5052874;28;20040;-81
2023/06/05 04:39:39;;;;;;;7.32;5.28;;;11.50;99.90;;;;;;5051485;28;20031;-82
2023/06/05 04:42:05;;;;;;;7.07;4.72;;;11.50;99.90;;;;;;5061544;28;20383;-83
2023/06/05 04:44:31;;;;;;;6.55;4.53;;;11.50;99.90;;;;;;5053021;28;20029;-82
2023/06/05 04:46:56;;;;;;;9.98;5.30;;;11.50;99.90;;;;;;5062571;28;20453;-82
2023/06/05 04:49:26;;;;;;;7.47;5.13;;;11.50;99.90;;;;;;5051822;28;20025;-82
2023/06/05 04:51:53;;;;;;;8.75;5.78;;;11.50;99.90;;;;;;5052399;28;20838;-83
2023/06/05 04:54:19;;;;;;;8.02;4.97;;;11.50;99.90;;;;;;5056452;28;20517;-84
2023/06/05 04:56:45;;;;;;;8.90;5.40;;;11.60;99.90;;;;;;5050726;28;20041;-84
2023/06/05 04:59:11;;;;;;;6.80;5.13;;;11.60;99.90;;;;;;5057358;28;20119;-83
2023/06/05 05:01:36;;;;;;;8.10;5.15;;;11.60;99.90;;;;;;5052841;28;20127;-83
2023/06/05 05:04:02;;;;;;;6.70;4.50;;;11.60;99.90;;;;;;5050283;28;20475;-83
2023/06/05 05:06:28;;;;;;;7.85;5.63;;;11.70;99.90;;;;;;5051368;28;20570;-82
2023/06/05 05:08:54;;;;;;;7.32;5.53;;;11.70;99.90;;;;;;5053151;28;20118;-82
2023/06/05 05:11:20;;;;;;;6.53;5.22;;;11.70;99.90;;;;;;5057021;28;20106;-82
2023/06/05 05:13:46;;;;;;;6.35;4.55;;;11.70;99.90;;;;;;5051826;28;20068;-84
2023/06/05 05:16:11;;;;;;;7.35;5.03;;;11.70;99.90;;;;;;5054947;28;20171;-82
2023/06/05 05:18:40;;;;;;;7.75;5.20;;;11.90;99.90;;;;;;5060374;28;20482;-83
2023/06/05 05:21:07;;;;;;;9.73;4.95;;;11.90;99.90;;;;;;5060535;28;20032;-82
2023/06/05 05:23:33;;;;;;;6.55;4.50;;;11.90;99.90;;;;;;5060015;28;20052;-82
2023/06/05 05:25:59;;;;;;;11.05;4.90;;;12.00;99.90;;;;;;5055578;28;20108;-83
2023/06/05 05:28:25;;;;;;;7.68;4.32;;;12.00;99.90;;;;;;5055982;28;20021;-82
2023/06/05 05:30:52;;;;;;;6.30;4.20;;;12.00;99.90;;;;;;5058162;28;20072;-81
2023/06/05 05:33:17;;;;;;;7.15;4.85;;;12.10;99.90;;;;;;5055728;28;20108;-83
2023/06/05 05:35:44;;;;;;;6.55;4.35;;;12.20;99.90;;;;;;5055696;28;20132;-82
2023/06/05 05:38:10;;;;;;;7.43;4.55;;;12.20;99.90;;;;;;5056866;28;20388;-83
2023/06/05 05:40:36;;;;;;;8.25;4.70;;;12.30;99.90;;;;;;5059600;28;20103;-82
2023/06/05 05:43:01;;;;;;;7.93;4.80;;;12.30;99.90;;;;;;5059285;28;20116;-82
2023/06/05 05:45:30;;;;;;;7.03;5.03;;;12.40;99.90;;;;;;5056926;28;20028;-80
2023/06/05 05:47:55;;;;;;;6.35;4.57;;;12.40;99.90;;;;;;5056315;28;20558;-83
2023/06/05 05:50:21;;;;;;;7.53;4.47;;;12.50;99.90;;;;;;5055458;28;20108;-89
2023/06/05 05:52:47;;;;;;;6.05;3.75;;;12.50;99.90;;;;;;5044237;28;20055;-84
2023/06/05 05:55:13;;;;;;;6.25;4.03;;;12.60;99.90;;;;;;5054547;28;20029;-83
2023/06/05 05:57:39;;;;;;;6.18;3.72;;;12.70;99.90;;;;;;5056337;28;20570;-83
2023/06/05 06:00:09;;;;;;;7.10;4.15;;;12.70;99.90;;;;;;5054783;28;20033;-83
2023/06/05 06:02:34;;;;;;;7.78;4.78;;;12.80;99.90;;;;;;5064330;28;20032;-84
2023/06/05 06:05:03;;;;;;;7.97;5.28;;;12.80;99.90;;;;;;5053218;28;20025;-84
2023/06/05 06:07:29;;;;;;;7.95;4.60;;;12.90;99.90;;;;;;5055704;28;20033;-84
2023/06/05 06:09:54;;;;;;;6.82;4.35;;;12.90;99.90;;;;;;5055198;28;20020;-84
2023/06/05 06:12:21;;;;;;;6.30;3.88;;;12.90;99.90;;;;;;5059537;28;20028;-86
2023/06/05 06:14:47;;;;;;;8.20;4.35;;;13.00;99.90;;;;;;5053376;28;20025;-85
2023/06/05 06:17:13;;;;;;;7.30;4.22;;;13.00;99.90;;;;;;5056249;28;20166;-84
2023/06/05 06:19:39;;;;;;;7.07;4.47;;;13.10;99.90;;;;;;5058149;28;20021;-85
2023/06/05 06:22:11;;;;;;;6.95;4.15;;;13.10;99.90;;;;;;5057429;28;20046;-83
2023/06/05 06:24:37;;;;;;;9.63;4.88;;;13.20;99.90;;;;;;5076116;28;20042;-84
2023/06/05 06:27:04;;;;;;;6.95;5.00;;;13.30;99.90;;;;;;5058586;28;20844;-84
2023/06/05 06:29:31;;;;;;;6.65;4.65;;;13.30;99.90;;;;;;5076534;28;20031;-85
2023/06/05 06:31:56;;;;;;;9.18;4.93;;;13.30;99.90;;;;;;5066292;28;20508;-86
2023/06/05 06:34:24;;;;;;;6.82;3.53;;;13.40;99.90;;;;;;5061644;28;20032;-86
2023/06/05 06:36:50;;;;;;;6.97;4.13;;;13.40;99.90;;;;;;5060607;28;20039;-84
2023/06/05 06:39:18;;;;;;;7.93;3.83;;;13.50;99.90;;;;;;5060793;28;20029;-85
2023/06/05 06:41:44;;;;;;;5.65;3.67;;;13.50;99.90;;;;;;5074079;28;20048;-86
2023/06/05 06:44:10;;;;;;;6.75;4.68;;;13.60;99.90;;;;;;5077782;28;20489;-86
2023/06/05 06:46:36;;;;;;;6.75;4.22;;;13.60;99.90;;;;;;5076878;28;20114;-85
2023/06/05 06:49:02;;;;;;;6.38;4.00;;;13.70;99.90;;;;;;5061682;28;20024;-86
2023/06/05 06:51:28;;;;;;;6.28;3.97;;;13.70;99.90;;;;;;5065625;28;20602;-86
2023/06/05 06:53:54;;;;;;;6.88;4.15;;;13.80;99.90;;;;;;5073618;28;20025;-84
2023/06/05 06:56:19;;;;;;;6.82;3.72;;;13.80;99.90;;;;;;5057596;28;20449;-87
2023/06/05 06:58:45;;;;;;;5.95;3.75;;;13.90;99.90;;;;;;5060098;28;20727;-85
2023/06/05 07:01:12;;;;;;;5.75;3.65;;;13.90;99.90;;;;;;5071653;28;20035;-83
2023/06/05 07:03:40;;;;;;;6.03;3.78;;;14.00;99.90;;;;;;5056082;28;20421;-83
2023/06/05 07:06:05;;;;;;;7.03;4.10;;;14.00;99.90;;;;;;5070187;28;20443;-83
2023/06/05 07:08:31;;;;;;;5.57;4.03;;;14.10;99.90;;;;;;5071553;28;20094;-83
2023/06/05 07:10:56;;;;;;;5.95;3.45;;;14.10;99.90;;;;;;5072424;28;20036;-84
2023/06/05 07:13:22;;;;;;;8.23;4.47;;;14.20;99.90;;;;;;5055331;28;20043;-85
2023/06/05 07:15:48;;;;;;;7.43;3.83;;;14.20;99.90;;;;;;5060788;28;20120;-84
2023/06/05 07:18:14;;;;;;;6.00;3.50;;;14.30;99.90;;;;;;5056505;28;20020;-82
2023/06/05 07:20:40;;;;;;;6.57;3.85;;;14.40;99.90;;;;;;5071265;28;20064;-82
2023/06/05 07:23:06;;;;;;;5.32;3.70;;;14.40;99.90;;;;;;5069652;28;20040;-84
2023/06/05 07:25:31;;;;;;;6.88;3.53;;;14.50;99.90;;;;;;5058104;28;20246;-84
2023/06/05 07:27:59;;;;;;;5.43;3.47;;;14.50;99.90;;;;;;5070621;28;20024;-84
2023/06/05 07:30:26;;;;;;;5.80;3.55;;;14.60;99.90;;;;;;5070651;28;20493;-82
2023/06/05 07:32:51;;;;;;;5.50;3.10;;;14.60;99.90;;;;;;5071328;28;20454;-86
2023/06/05 07:35:17;;;;;;;5.32;3.40;;;14.70;99.90;;;;;;5072564;28;20086;-83
2023/06/05 07:37:42;;;;;;;5.85;2.83;;;14.80;99.90;;;;;;5072457;28;20033;-85
2023/06/05 07:40:08;;;;;;;4.43;2.80;;;14.90;99.90;;;;;;5073540;28;20629;-80
2023/06/05 07:42:34;;;;;;;6.75;2.67;;;15.00;99.90;;;;;;5073147;28;20750;-80
2023/06/05 07:45:00;;;;;;;4.00;2.55;;;15.10;99.90;;;;;;5070603;28;20657;-80
2023/06/05 07:47:26;;;;;;;6.07;2.92;;;15.20;99.90;;;;;;5056807;28;20111;-81
2023/06/05 07:50:06;;;;;;;4.82;2.88;;;15.30;99.90;;;;;;5061269;28;20404;-85
2023/06/05 07:52:32;;;;;;;5.63;3.13;;;15.40;99.90;;;;;;5056774;28;20444;-84
2023/06/05 07:54:58;;;;;;;6.03;3.60;;;15.40;99.90;;;;;;5061166;28;20024;-84
2023/06/05 07:57:24;;;;;;;4.22;2.80;;;15.50;99.90;;;;;;5073545;28;20048;-84
2023/06/05 07:59:50;;;;;;;3.47;2.25;;;15.50;99.90;;;;;;5055908;28;20142;-84
2023/06/05 08:02:17;;;;;;;3.80;2.50;;;15.60;99.90;;;;;;5071485;28;20020;-82
2023/06/05 08:04:43;;;;;;;4.40;2.33;;;15.80;99.90;;;;;;5073902;28;20034;-85
2023/06/05 08:07:08;;;;;;;3.05;2.17;;;15.90;99.90;;;;;;5057942;28;20588;-84
2023/06/05 08:09:36;;;;;;;3.83;2.45;;;15.90;99.90;;;;;;5075043;28;20036;-84
2023/06/05 08:12:04;;;;;;;4.85;2.80;;;16.00;99.90;;;;;;5063458;28;20048;-84
2023/06/05 08:14:30;;;;;;;5.28;3.08;;;16.10;99.90;;;;;;5072464;28;20016;-84
2023/06/05 08:16:55;;;;;;;5.43;3.47;;;16.10;99.90;;;;;;5071222;28;20043;-86
2023/06/05 08:19:22;;;;;;;4.70;3.00;;;16.20;99.90;;;;;;5074730;28;20466;-84
2023/06/05 08:21:51;;;;;;;5.55;3.10;;;16.30;99.90;;;;;;5057277;28;20099;-85
2023/06/05 08:24:17;;;;;;;5.10;3.00;;;16.30;99.90;;;;;;5061282;28;20057;-84
2023/06/05 08:26:42;;;;;;;4.95;2.95;;;16.50;99.90;;;;;;5059193;28;20032;-84
2023/06/05 08:29:08;;;;;;;4.22;2.38;;;16.60;99.90;;;;;;5062662;28;20024;-84
2023/06/05 08:31:36;;;;;;;4.43;3.00;;;16.60;99.90;;;;;;5057044;28;20071;-84
2023/06/05 08:34:02;;;;;;;5.70;2.92;;;16.70;99.90;;;;;;5073689;28;20028;-81
2023/06/05 08:36:28;;;;;;;6.07;2.70;;;16.70;99.90;;;;;;5071610;28;20320;-83
2023/06/05 08:38:53;;;;;;;5.18;3.00;;;16.90;99.90;;;;;;5071589;28;20022;-82
2023/06/05 08:41:19;;;;;;;7.22;3.40;;;17.00;99.90;;;;;;5072374;28;20036;-83
2023/06/05 08:43:45;;;;;;;3.97;2.30;;;17.10;99.90;;;;;;5071743;28;20048;-83
2023/06/05 08:46:12;;;;;;;5.80;3.08;;;17.20;99.90;;;;;;5055109;28;20055;-83
2023/06/05 08:48:44;;;;;;;5.03;2.95;;;17.30;99.90;;;;;;5057125;28;20049;-83
2023/06/05 08:51:12;;;;;;;5.28;2.72;;;17.40;99.90;;;;;;5059772;28;20028;-83
2023/06/05 08:53:39;;;;;;;5.82;2.90;;;17.40;99.90;;;;;;5055648;28;20056;-84
2023/06/05 08:56:06;;;;;;;5.60;2.78;;;17.60;99.90;;;;;;5071568;28;20037;-82
2023/06/05 08:58:32;;;;;;;5.35;2.80;;;17.60;99.90;;;;;;5061225;28;20048;-83
2023/06/05 09:01:01;;;;;;;4.25;2.78;;;17.70;99.90;;;;;;5072135;28;20036;-84
2023/06/05 09:03:26;;;;;;;4.32;2.28;;;17.80;99.90;;;;;;5058217;28;20138;-85
2023/06/05 09:05:53;;;;;;;4.07;2.25;;;18.00;99.90;;;;;;5071969;28;20486;-84
2023/06/05 09:08:30;;;;;;;4.18;2.83;;;18.20;99.90;;;;;;5061763;28;20024;-85
2023/06/05 09:11:21;;;;;;;4.25;2.72;;;18.30;99.90;;;;;;5073508;28;20020;-85
2023/06/05 09:13:47;;;;;;;3.45;2.50;;;18.40;99.90;;;;;;5048651;28;20785;-84
2023/06/05 09:16:13;;;;;;;3.63;2.40;;;18.50;99.90;;;;;;5064467;28;20156;-84
2023/06/05 09:18:56;;;;;;;6.78;2.53;;;18.60;99.90;;;;;;5062516;28;20171;-85
2023/06/05 09:21:28;;;;;;;7.40;2.40;;;18.80;99.90;;;;;;5057429;28;20036;-84
2023/06/05 09:24:10;;;;;;;3.77;2.23;;;18.90;99.90;;;;;;5064289;28;20078;-84
2023/06/05 09:27:01;;;;;;;4.68;2.30;;;19.10;99.90;;;;;;5073038;28;20300;-84
2023/06/05 09:29:37;;;;;;;6.10;2.67;;;19.40;99.90;;;;;;5071185;28;20480;-85
2023/06/05 09:32:08;;;;;;;5.57;2.47;;;19.70;99.90;;;;;;5054590;28;20064;-84
2023/06/05 09:34:35;;;;;;;5.60;2.50;;;20.70;99.90;;;;;;5061912;28;20029;-85
2023/06/05 09:37:04;;;;;;;3.92;2.28;;;21.90;99.70;;;;;;5061200;28;20042;-85
2023/06/05 09:39:31;;;;;;;4.05;2.20;;;22.90;99.00;;;;;;5056121;28;20039;-85
2023/06/05 09:41:58;;;;;;;4.32;2.33;;;23.70;98.10;;;;;;5060182;28;20028;-86
2023/06/05 09:44:25;;;;;;;5.32;2.50;;;24.30;97.40;;;;;;5055717;28;20106;-86
2023/06/05 09:46:53;;;;;;;3.50;2.05;;;24.80;96.60;;;;;;5070863;28;20101;-84
2023/06/05 09:49:19;;;;;;;2.97;1.63;;;25.10;96.30;;;;;;5071251;28;20029;-85
2023/06/05 09:51:46;;;;;;;2.65;1.40;;;25.60;96.10;;;;;;5060537;28;20036;-86
2023/06/05 09:54:13;;;;;;;4.18;1.58;;;26.00;95.60;;;;;;5060675;28;20028;-85
2023/06/05 09:56:46;;;;;;;5.82;2.40;;;26.40;95.10;;;;;;5056659;28;20048;-85
2023/06/05 09:59:15;;;;;;;2.90;1.63;;;26.70;94.30;;;;;;5060375;28;20031;-84
2023/06/05 10:01:43;;;;;;;3.17;1.92;;;26.80;93.80;;;;;;5058293;28;20024;-85
2023/06/05 10:04:11;;;;;;;3.78;1.88;;;26.90;93.50;;;;;;5059708;28;20677;-86
2023/06/05 10:06:37;;;;;;;2.83;1.77;;;27.10;93.00;;;;;;5071392;28;20073;-84
2023/06/05 10:09:03;;;;;;;3.78;1.73;;;27.40;92.70;;;;;;5072718;28;20032;-82
2023/06/05 10:11:29;;;;;;;2.45;1.58;;;27.70;92.20;;;;;;5072042;28;21532;-82
2023/06/05 10:13:59;;;;;;;3.33;1.88;;;28.00;91.80;;;;;;5060268;28;20062;-80
2023/06/05 10:16:27;;;;;;;3.20;1.70;;;28.20;91.30;;;;;;5072133;28;20058;-80
2023/06/05 10:18:55;;;;;;;4.40;1.95;;;28.40;91.20;;;;;;5069420;28;20957;-85
2023/06/05 10:21:21;;;;;;;4.20;1.90;;;28.60;90.50;;;;;;5072228;28;20028;-83
2023/06/05 10:23:57;;;;;;;2.80;1.70;;;28.70;90.20;;;;;;5057117;28;20052;-84
2023/06/05 10:26:32;;;;;;;3.83;1.88;;;28.90;89.70;;;;;;5057492;28;20534;-83
2023/06/05 10:29:16;;;;;;;3.67;1.70;;;29.20;88.80;;;;;;5049735;28;20411;-83
2023/06/05 10:31:50;;;;;;;2.72;1.65;;;29.50;88.40;;;;;;5055357;28;20036;-84
2023/06/05 10:34:37;;;;;;;3.20;1.80;;;29.70;88.00;;;;;;5051280;28;20090;-85
2023/06/05 10:37:30;;;;;;;3.00;1.65;;;29.90;87.30;;;;;;5051888;28;20795;-83
2023/06/05 10:39:56;;;;;;;4.53;1.50;;;29.90;86.20;;;;;;5059705;28;20059;-84
2023/06/05 10:42:26;;;;;;;2.20;1.15;;;30.00;86.20;;;;;;5054673;28;20028;-83
2023/06/05 10:44:53;;;;;;;3.72;1.67;;;30.30;86.00;;;;;;5051845;28;20029;-82
2023/06/05 10:47:33;;;;;;;2.30;1.42;;;30.30;85.20;;;;;;5052465;28;20043;-85
2023/06/05 10:50:18;;;;;;;2.67;1.60;;;30.20;84.90;;;;;;5052475;28;20112;-83
2023/06/05 10:52:44;;;;;;;2.90;1.70;;;30.30;84.80;;;;;;5053852;28;20025;-83
2023/06/05 10:55:17;;;;;;;2.60;1.30;;;30.50;84.40;;;;;;5052125;28;20170;-82
2023/06/05 10:58:01;;;;;;;;;;;30.40;83.70;;;;;;5053304;28;20654;-83
2023/06/05 11:00:30;;;;;;;2.92;1.67;;;30.20;84.00;;;;;;5053395;28;19955;-82
2023/06/05 11:02:56;;;;;;;3.50;1.80;;;30.10;83.10;;;;;;5051193;28;20036;-81
2023/06/05 11:05:22;;;;;;;3.25;1.52;;;30.10;82.90;;;;;;5052311;28;20025;-82
2023/06/05 11:08:15;;;;;;;3.13;1.50;;;30.20;82.20;;;;;;5055856;28;20028;-82
2023/06/05 11:11:16;;;;;;;4.07;1.90;;;30.40;82.20;;;;;;5050094;28;20425;-81
2023/06/05 11:13:58;;;;;;;2.53;1.58;;;30.70;81.60;;;;;;5002075;28;20037;-81
2023/06/05 11:16:30;;;;;;;2.93;1.57;;;30.90;80.90;;;;;;5049060;28;20044;-83
2023/06/05 11:19:16;;;;;;;4.75;1.42;;;30.90;80.60;;;;;;5051951;28;20366;-83
2023/06/05 11:22:07;;;;;;;3.33;1.73;;;30.90;80.60;;;;;;5049059;28;20035;-82
2023/06/05 11:24:34;;;;;;;3.53;1.60;;;30.90;79.70;;;;;;5049994;28;20037;-82
2023/06/05 11:27:00;;;;;;;2.85;1.10;;;31.00;79.80;;;;;;5053817;28;20692;-84
2023/06/05 11:29:27;;;;;;;3.88;1.50;;;31.10;79.50;;;;;;5050120;28;20033;-82
2023/06/05 11:31:52;;;;;;;3.97;1.50;;;31.20;78.70;;;;;;5051246;28;20036;-81
2023/06/05 11:34:18;;;;;;;2.72;1.70;;;31.10;78.60;;;;;;5055585;28;20046;-81
2023/06/05 11:36:50;;;;;;;2.80;1.90;;;31.30;77.80;;;;;;5060621;28;20041;-84
2023/06/05 11:39:16;;;;;;;2.45;1.50;;;31.20;77.40;;;;;;5054130;28;20535;-83
2023/06/05 11:41:47;;;;;;;2.08;1.45;;;31.20;77.30;;;;;;5055583;28;20697;-82
2023/06/05 11:44:14;;;;;;;3.35;1.48;;;31.40;77.40;;;;;;5050623;28;20028;-82
2023/06/05 11:46:43;;;;;;;3.70;1.50;;;31.60;77.50;;;;;;5052212;28;20032;-82
2023/06/05 11:49:26;;;;;;;2.72;1.33;;;32.10;77.20;;;;;;5050955;28;20064;-85
2023/06/05 11:51:53;;;;;;;2.65;1.58;;;32.40;76.20;;;;;;5049356;28;20039;-84
2023/06/05 11:54:26;;;;;;;3.45;1.67;;;32.30;75.90;;;;;;5051675;28;20113;-84
2023/06/05 11:57:07;;;;;;;3.53;1.40;;;32.50;75.70;;;;;;5055278;28;20780;-85
2023/06/05 11:59:34;;;;;;;1.92;1.17;;;32.70;75.40;;;;;;5055847;28;20021;-82
2023/06/05 12:02:00;;;;;;;4.82;1.80;;;32.70;75.30;;;;;;5044219;28;20036;-82
2023/06/05 12:04:26;;;;;;;3.28;2.10;;;32.80;74.80;;;;;;5056465;28;20077;-82
2023/06/05 12:06:53;;;;;;;3.17;2.10;;;32.80;74.20;;;;;;5054471;28;20698;-82
2023/06/05 12:09:19;;;;;;;2.88;1.67;;;32.90;74.40;;;;;;5050518;28;20081;-82
2023/06/05 12:11:45;;;;;;;4.25;1.80;;;33.00;74.40;;;;;;5054938;28;20032;-83
2023/06/05 12:14:12;;;;;;;3.15;1.77;;;33.00;74.10;;;;;;5054465;28;20394;-83
2023/06/05 12:16:40;;;;;;;3.95;1.80;;;33.00;72.90;;;;;;5049471;28;20045;-82
2023/06/05 12:19:18;;;;;;;3.33;1.60;;;32.80;73.00;;;;;;5051922;28;20398;-83
2023/06/05 12:21:46;;;;;;;2.90;1.35;;;32.80;72.60;;;;;;5050755;28;20061;-83
2023/06/05 12:24:12;;;;;;;3.30;1.63;;;32.80;72.80;;;;;;5055097;28;20178;-82
2023/06/05 12:26:55;;;;;;;3.95;2.22;;;33.00;72.70;;;;;;5055985;28;20032;-84
2023/06/05 12:29:29;;;;;;;2.85;1.70;;;33.00;71.50;;;;;;5071822;28;20024;-83
2023/06/05 12:31:57;;;;;;;3.60;1.88;;;32.70;71.90;;;;;;5061862;28;20027;-83
2023/06/05 12:34:46;;;;;;;3.88;2.30;;;32.80;71.70;;;;;;5056672;28;20165;-84
2023/06/05 12:37:21;;;;;;;3.33;2.10;;;32.90;71.30;;;;;;5060621;28;20036;-83
2023/06/05 12:39:47;;;;;;;3.40;2.13;;;33.00;71.50;;;;;;5070236;28;20389;-84
2023/06/05 12:42:13;;;;;;;2.67;1.52;;;33.10;71.00;;;;;;5071218;28;20021;-84
2023/06/05 12:44:38;;;;;;;4.65;1.90;;;33.20;70.80;;;;;;5071242;28;20036;-84
2023/06/05 12:47:05;;;;;;;2.97;1.63;;;33.00;70.20;;;;;;5070614;28;20524;-83
2023/06/05 12:49:31;;;;;;;2.13;1.40;;;33.00;70.70;;;;;;5060794;28;20024;-83
2023/06/05 12:51:57;;;;;;;3.28;1.77;;;33.00;70.00;;;;;;5060638;28;20027;-84
2023/06/05 12:54:23;;;;;;;3.47;1.60;;;33.20;70.00;;;;;;5060034;28;20587;-83